createdAt,value
2023-04-25T00:00:52.159Z,95
2023-04-25T00:10:52.224Z,95
2023-04-25T00:20:52.234Z,96
2023-04-25T00:30:52.192Z,96
2023-04-25T00:40:52.183Z,96
2023-04-25T00:50:52.247Z,96
2023-04-25T01:00:52.187Z,96
2023-04-25T01:10:52.170Z,96
2023-04-25T01:20:52.164Z,97
2023-04-25T01:30:52.199Z,98
2023-04-25T01:40:52.163Z,98
2023-04-25T01:50:52.160Z,98
2023-04-25T02:00:52.159Z,98
2023-04-25T02:10:52.131Z,98
2023-04-25T02:20:52.178Z,98
2023-04-25T02:30:52.148Z,98
2023-04-25T02:40:52.168Z,99
2023-04-25T02:50:52.125Z,99
2023-04-25T03:00:52.138Z,99
2023-04-25T03:10:52.157Z,99
2023-04-25T03:20:52.177Z,99
2023-04-25T03:30:52.130Z,98
2023-04-25T03:40:52.146Z,98
2023-04-25T03:50:52.169Z,99
2023-04-25T04:00:52.134Z,99
2023-04-25T04:10:52.117Z,98
2023-04-25T04:20:52.132Z,99
2023-04-25T04:30:52.179Z,98
2023-04-25T04:40:52.155Z,98
2023-04-25T04:50:52.150Z,98
2023-04-25T05:00:52.133Z,98
2023-04-25T05:10:52.157Z,98
2023-04-25T05:20:52.129Z,98
2023-04-25T05:30:52.142Z,98
2023-04-25T05:40:52.117Z,100
2023-04-25T05:50:52.116Z,100
2023-04-25T06:00:52.144Z,100
2023-04-25T06:10:52.154Z,100
2023-04-25T06:20:52.134Z,100
2023-04-25T06:30:52.178Z,100
2023-04-25T06:40:52.118Z,100
2023-04-25T06:50:52.132Z,100
2023-04-25T07:00:52.129Z,100
2023-04-25T07:10:52.109Z,100
2023-04-25T07:20:52.148Z,100
2023-04-25T07:30:52.163Z,100
2023-04-25T07:40:52.111Z,100
2023-04-25T07:50:52.117Z,100
2023-04-25T08:00:52.074Z,100
2023-04-25T08:10:52.143Z,100
2023-04-25T08:20:52.087Z,100
2023-04-25T08:30:52.140Z,100
2023-04-25T08:40:52.082Z,100
2023-04-25T08:50:52.081Z,100
2023-04-25T09:00:52.053Z,100
2023-04-25T09:10:52.055Z,100
2023-04-25T09:30:52.061Z,96
2023-04-25T09:40:52.024Z,90
2023-04-25T09:50:52.041Z,91
2023-04-25T10:00:51.998Z,91
2023-04-25T10:10:52.041Z,75
2023-04-25T10:20:53.981Z,71
2023-04-25T10:30:52.051Z,68
2023-04-25T10:40:52.008Z,65
2023-04-25T10:50:51.966Z,66
2023-04-25T11:00:57.387Z,68
2023-04-25T11:10:52.235Z,67
2023-04-25T11:20:51.975Z,67
2023-04-25T11:30:51.968Z,68
2023-04-25T11:40:51.948Z,62
2023-04-25T11:50:51.949Z,61
2023-04-25T12:00:51.935Z,59
2023-04-25T12:10:51.937Z,58
2023-04-25T12:20:51.941Z,56
2023-04-25T12:30:51.890Z,58
2023-04-25T12:40:51.888Z,57
2023-04-25T12:50:51.884Z,54
2023-04-25T13:00:51.913Z,55
2023-04-25T13:10:51.846Z,59
2023-04-25T13:20:51.887Z,64
2023-04-25T13:30:51.903Z,100
2023-04-25T13:40:51.836Z,100
2023-04-25T13:50:51.876Z,100
2023-04-25T14:00:51.844Z,100
2023-04-25T14:10:51.842Z,100
2023-04-25T14:20:51.826Z,100
2023-04-25T14:30:51.910Z,100
2023-04-25T14:40:51.805Z,92
2023-04-25T14:50:51.843Z,85
2023-04-25T15:00:51.906Z,77
2023-04-25T15:10:51.803Z,75
2023-04-25T15:20:51.815Z,68
2023-04-25T15:30:51.795Z,57
2023-04-25T15:40:51.804Z,61
2023-04-25T15:50:51.780Z,65
2023-04-25T16:00:51.851Z,76
2023-04-25T16:10:51.777Z,79
2023-04-25T16:20:51.764Z,66
2023-04-25T16:30:51.768Z,64
2023-04-25T16:40:51.721Z,63
2023-04-25T16:50:51.755Z,76
2023-04-25T17:00:51.748Z,82
2023-04-25T17:10:51.677Z,80
2023-04-25T17:20:51.668Z,88
2023-04-25T17:40:51.667Z,100
2023-04-25T17:50:51.710Z,100
2023-04-25T18:00:51.650Z,100
2023-04-25T18:10:51.642Z,100
2023-04-25T18:20:51.669Z,100
2023-04-25T18:30:51.639Z,97
2023-04-25T18:41:00.013Z,94
2023-04-25T18:50:51.643Z,100
2023-04-25T19:00:51.680Z,100
2023-04-25T19:10:51.630Z,100
2023-04-25T19:20:51.623Z,100
2023-04-25T19:30:51.664Z,100
2023-04-25T19:40:51.604Z,100
2023-04-25T19:50:51.602Z,100
2023-04-25T20:00:51.649Z,100
2023-04-25T20:10:51.605Z,100
2023-04-25T20:20:51.606Z,100
2023-04-25T20:30:51.607Z,100
2023-04-25T20:40:51.603Z,100
2023-04-25T20:50:51.629Z,100
2023-04-25T21:00:51.620Z,100
2023-04-25T21:10:51.651Z,100
2023-04-25T21:20:51.611Z,100
2023-04-25T21:30:51.654Z,100
2023-04-25T21:40:51.592Z,100
2023-04-25T21:50:51.656Z,100
2023-04-25T22:00:51.591Z,100
2023-04-25T22:10:51.656Z,100
2023-04-25T22:20:51.566Z,100
2023-04-25T22:30:51.607Z,100
2023-04-25T22:40:51.646Z,100
2023-04-25T22:50:51.587Z,100
2023-04-25T23:00:51.595Z,100
2023-04-25T23:10:51.562Z,100
2023-04-25T23:20:51.657Z,100
2023-04-25T23:30:51.635Z,100
2023-04-25T23:40:51.567Z,100
2023-04-25T23:50:51.583Z,100
